createdAt,value
2022-10-13T00:00:29.098Z,6.50
2022-10-13T00:02:55.695Z,6.37
2022-10-13T00:05:22.286Z,6.67
2022-10-13T00:07:48.888Z,6.73
2022-10-13T00:10:15.603Z,6.20
2022-10-13T00:12:42.172Z,6.07
2022-10-13T00:15:09.893Z,7.07
2022-10-13T00:17:37.188Z,6.77
2022-10-13T00:20:04.221Z,7.00
2022-10-13T00:22:30.979Z,7.83
2022-10-13T00:24:57.641Z,6.03
2022-10-13T00:27:24.316Z,7.77
2022-10-13T00:29:50.997Z,7.17
2022-10-13T00:32:17.905Z,7.20
2022-10-13T00:34:45.512Z,6.33
2022-10-13T00:37:12.134Z,7.70
2022-10-13T00:39:38.883Z,7.07
2022-10-13T00:42:07.271Z,6.83
2022-10-13T00:44:58.651Z,6.93
2022-10-13T00:47:28.154Z,8.00
2022-10-13T00:49:56.299Z,6.57
2022-10-13T00:52:27.365Z,7.33
2022-10-13T00:54:55.310Z,6.63
2022-10-13T00:57:22.614Z,7.07
2022-10-13T00:59:49.530Z,7.17
2022-10-13T01:02:16.925Z,7.07
2022-10-13T01:04:46.725Z,7.57
2022-10-13T01:07:15.780Z,7.00
2022-10-13T01:09:42.521Z,7.63
2022-10-13T01:12:14.552Z,6.90
2022-10-13T01:14:47.957Z,7.27
2022-10-13T01:17:26.068Z,7.97
2022-10-13T01:20:33.624Z,6.50
2022-10-13T01:23:22.924Z,6.83
2022-10-13T01:26:13.592Z,6.90
2022-10-13T01:28:58.851Z,7.90
2022-10-13T01:31:32.009Z,6.93
2022-10-13T01:34:08.800Z,7.70
2022-10-13T01:36:41.440Z,7.90
2022-10-13T01:39:17.388Z,7.03
2022-10-13T01:41:49.320Z,7.37
2022-10-13T01:44:21.343Z,8.07
2022-10-13T01:46:51.251Z,7.17
2022-10-13T01:49:21.567Z,8.30
2022-10-13T01:51:49.495Z,7.13
2022-10-13T01:54:16.102Z,7.23
2022-10-13T01:56:50.885Z,7.17
2022-10-13T01:59:17.570Z,8.77
2022-10-13T02:01:53.889Z,8.10
2022-10-13T02:04:29.749Z,7.63
2022-10-13T02:07:00.991Z,7.23
2022-10-13T02:09:34.230Z,7.33
2022-10-13T02:12:06.927Z,7.80
2022-10-13T02:14:37.877Z,7.87
2022-10-13T02:17:05.739Z,7.00
2022-10-13T02:19:36.141Z,7.57
2022-10-13T02:22:03.470Z,7.43
2022-10-13T02:24:30.014Z,7.03
2022-10-13T02:26:57.110Z,6.70
2022-10-13T02:29:23.782Z,7.23
2022-10-13T02:31:50.338Z,7.93
2022-10-13T02:34:17.526Z,7.57
2022-10-13T02:36:44.131Z,7.17
2022-10-13T02:39:11.260Z,6.67
2022-10-13T02:41:37.946Z,7.93
2022-10-13T02:44:04.882Z,7.63
2022-10-13T02:46:31.933Z,7.00
2022-10-13T02:48:58.479Z,7.13
2022-10-13T02:51:26.064Z,6.67
2022-10-13T02:53:52.673Z,8.73
2022-10-13T02:56:19.380Z,7.77
2022-10-13T02:58:45.987Z,7.80
2022-10-13T03:01:14.587Z,7.53
2022-10-13T03:03:41.605Z,7.40
2022-10-13T03:06:08.578Z,7.93
2022-10-13T03:08:36.369Z,7.37
2022-10-13T03:11:02.990Z,7.13
2022-10-13T03:13:29.602Z,8.03
2022-10-13T03:15:56.174Z,8.00
2022-10-13T03:18:22.932Z,7.67
2022-10-13T03:20:56.805Z,7.70
2022-10-13T03:23:23.464Z,8.50
2022-10-13T03:25:50.681Z,7.70
2022-10-13T03:28:17.321Z,8.50
2022-10-13T03:30:43.978Z,7.40
2022-10-13T03:33:10.628Z,7.87
2022-10-13T03:35:37.513Z,8.13
2022-10-13T03:38:04.126Z,7.30
2022-10-13T03:40:31.049Z,8.03
2022-10-13T03:42:58.325Z,8.90
2022-10-13T03:45:25.004Z,7.10
2022-10-13T03:47:51.571Z,7.77
2022-10-13T03:50:18.290Z,8.13
2022-10-13T03:52:44.909Z,8.17
2022-10-13T03:55:11.507Z,8.20
2022-10-13T03:57:38.103Z,8.33
2022-10-13T04:00:10.016Z,7.73
2022-10-13T04:02:36.581Z,7.40
2022-10-13T04:05:03.589Z,8.17
2022-10-13T04:07:30.194Z,8.10
2022-10-13T04:09:56.705Z,8.57
2022-10-13T04:12:23.652Z,8.67
2022-10-13T04:14:50.445Z,9.37
2022-10-13T04:17:17.673Z,8.37
2022-10-13T04:19:44.412Z,8.93
2022-10-13T04:22:10.943Z,9.23
2022-10-13T04:24:37.489Z,8.53
2022-10-13T04:27:04.149Z,7.80
2022-10-13T04:29:30.990Z,8.10
2022-10-13T04:31:59.368Z,9.60
2022-10-13T04:34:26.594Z,10.87
2022-10-13T04:36:53.225Z,8.53
2022-10-13T04:39:19.809Z,9.17
2022-10-13T04:41:46.398Z,8.50
2022-10-13T04:44:12.962Z,8.77
2022-10-13T04:46:39.555Z,7.60
2022-10-13T04:49:06.289Z,8.20
2022-10-13T04:51:33.559Z,8.43
2022-10-13T04:54:01.274Z,9.87
2022-10-13T04:56:28.602Z,8.70
2022-10-13T04:58:55.351Z,9.20
2022-10-13T05:01:24.221Z,8.90
2022-10-13T05:03:52.074Z,8.67
2022-10-13T05:06:20.992Z,8.47
2022-10-13T05:08:48.573Z,8.47
2022-10-13T05:11:16.572Z,8.93
2022-10-13T05:13:43.337Z,8.93
2022-10-13T05:16:12.000Z,10.13
2022-10-13T05:18:39.060Z,8.43
2022-10-13T05:21:09.694Z,9.17
2022-10-13T05:23:36.416Z,8.33
2022-10-13T05:26:04.673Z,8.83
2022-10-13T05:28:31.591Z,9.60
2022-10-13T05:31:07.934Z,9.20
2022-10-13T05:33:34.502Z,10.07
2022-10-13T05:36:04.143Z,10.10
2022-10-13T05:38:30.714Z,10.03
2022-10-13T05:41:02.027Z,9.67
2022-10-13T05:43:30.496Z,9.83
2022-10-13T05:45:57.184Z,11.07
2022-10-13T05:48:23.715Z,10.97
2022-10-13T05:50:50.401Z,10.63
2022-10-13T05:53:17.492Z,10.43
2022-10-13T05:55:44.412Z,9.93
2022-10-13T05:58:11.323Z,10.10
2022-10-13T06:00:41.466Z,11.03
2022-10-13T06:03:10.637Z,9.40
2022-10-13T06:05:37.562Z,11.07
2022-10-13T06:08:04.493Z,10.23
2022-10-13T06:10:31.268Z,10.40
2022-10-13T06:12:57.808Z,9.63
2022-10-13T06:15:27.989Z,10.00
2022-10-13T06:17:55.591Z,10.93
2022-10-13T06:20:22.256Z,10.27
2022-10-13T06:22:50.230Z,10.77
2022-10-13T06:25:17.226Z,12.53
2022-10-13T06:27:43.992Z,11.13
2022-10-13T06:30:11.072Z,10.63
2022-10-13T06:32:37.680Z,11.27
2022-10-13T06:35:06.787Z,10.60
2022-10-13T06:37:33.326Z,10.13
2022-10-13T06:40:00.035Z,9.67
2022-10-13T06:42:30.178Z,10.50
2022-10-13T06:44:56.944Z,10.63
2022-10-13T06:47:23.694Z,10.87
2022-10-13T06:49:50.576Z,10.30
2022-10-13T06:52:18.393Z,11.53
2022-10-13T06:54:45.135Z,10.53
2022-10-13T06:57:12.236Z,11.30
2022-10-13T06:59:39.408Z,11.10
2022-10-13T07:02:06.411Z,10.60
2022-10-13T07:04:33.177Z,11.20
2022-10-13T07:06:59.768Z,10.70
2022-10-13T07:09:27.179Z,11.53
2022-10-13T07:11:53.852Z,10.57
2022-10-13T07:14:20.446Z,10.97
2022-10-13T07:16:47.661Z,10.20
2022-10-13T07:19:14.224Z,11.33
2022-10-13T07:21:40.842Z,9.50
2022-10-13T07:24:09.280Z,18.07
2022-10-13T07:26:36.484Z,11.93
2022-10-13T07:29:03.429Z,10.87
2022-10-13T07:31:29.977Z,11.23
2022-10-13T07:33:59.690Z,12.60
2022-10-13T07:36:26.809Z,11.37
2022-10-13T07:38:53.741Z,12.40
2022-10-13T07:41:20.380Z,11.53
2022-10-13T07:43:47.620Z,11.90
2022-10-13T07:46:14.819Z,12.10
2022-10-13T07:48:41.708Z,11.80
2022-10-13T07:51:09.928Z,11.50
2022-10-13T07:53:36.699Z,12.07
2022-10-13T07:56:05.488Z,12.93
2022-10-13T07:58:32.448Z,11.87
2022-10-13T08:01:02.111Z,12.10
2022-10-13T08:03:32.347Z,12.80
2022-10-13T08:05:59.859Z,13.70
2022-10-13T08:08:26.955Z,12.03
2022-10-13T08:13:25.181Z,12.03
2022-10-13T08:15:52.139Z,12.33
2022-10-13T08:18:19.663Z,13.30
2022-10-13T08:20:46.455Z,14.43
2022-10-13T08:23:13.573Z,11.93
2022-10-13T08:25:41.427Z,12.57
2022-10-13T08:28:18.348Z,12.60
2022-10-13T08:30:45.189Z,12.13
2022-10-13T08:33:12.448Z,11.67
2022-10-13T08:35:41.057Z,12.43
2022-10-13T08:38:07.922Z,12.87
2022-10-13T08:40:34.898Z,12.27
2022-10-13T08:43:06.022Z,12.17
2022-10-13T08:45:41.648Z,13.10
2022-10-13T08:48:14.021Z,12.93
2022-10-13T08:50:44.307Z,13.10
2022-10-13T08:53:16.183Z,13.27
2022-10-13T08:55:45.149Z,12.37
2022-10-13T08:58:18.540Z,12.47
2022-10-13T09:00:45.220Z,12.53
2022-10-13T09:03:22.338Z,13.07
2022-10-13T09:06:00.569Z,17.67
2022-10-13T09:08:32.669Z,13.20
2022-10-13T09:10:59.308Z,13.60
2022-10-13T09:13:26.473Z,12.60
2022-10-13T09:15:53.381Z,13.80
2022-10-13T09:18:28.701Z,13.07
2022-10-13T09:21:10.226Z,13.27
2022-10-13T09:23:39.617Z,12.23
2022-10-13T09:26:19.045Z,12.67
2022-10-13T09:28:45.852Z,13.10
2022-10-13T09:31:19.137Z,12.43
2022-10-13T09:33:50.550Z,12.63
2022-10-13T09:36:17.774Z,12.63
2022-10-13T09:39:05.719Z,12.83
2022-10-13T09:41:33.794Z,13.10
2022-10-13T09:44:08.832Z,13.27
2022-10-13T09:46:39.272Z,13.03
2022-10-13T09:49:19.254Z,13.33
2022-10-13T09:51:47.247Z,14.00
2022-10-13T09:54:26.697Z,13.77
2022-10-13T09:56:56.361Z,13.47
2022-10-13T09:59:32.499Z,13.17
2022-10-13T10:02:03.414Z,14.17
2022-10-13T10:04:35.565Z,12.93
2022-10-13T10:07:11.243Z,13.63
2022-10-13T10:09:45.353Z,13.70
2022-10-13T10:12:16.379Z,13.27
2022-10-13T10:14:43.085Z,13.30
2022-10-13T10:17:18.044Z,12.67
2022-10-13T10:19:56.733Z,15.10
2022-10-13T10:22:34.441Z,13.23
2022-10-13T10:25:12.385Z,13.47
2022-10-13T10:27:43.831Z,13.53
2022-10-13T10:30:16.004Z,12.33
2022-10-13T10:32:50.347Z,14.50
2022-10-13T10:35:22.567Z,15.33
2022-10-13T10:38:05.082Z,14.87
2022-10-13T10:40:37.601Z,13.90
2022-10-13T10:43:36.342Z,14.50
2022-10-13T10:46:05.594Z,13.27
2022-10-13T10:48:37.059Z,14.07
2022-10-13T10:51:07.397Z,19.60
2022-10-13T10:53:39.747Z,14.73
2022-10-13T10:56:15.676Z,13.83
2022-10-13T10:58:49.324Z,14.70
2022-10-13T11:01:28.157Z,15.07
2022-10-13T11:04:00.981Z,15.30
2022-10-13T11:06:35.239Z,15.83
2022-10-13T11:09:07.119Z,15.67
2022-10-13T11:11:42.920Z,13.80
2022-10-13T11:14:26.379Z,15.67
2022-10-13T11:17:19.438Z,15.30
2022-10-13T11:19:48.753Z,14.70
2022-10-13T11:22:22.167Z,15.23
2022-10-13T11:24:56.561Z,14.37
2022-10-13T11:27:44.221Z,15.23
2022-10-13T11:30:40.705Z,15.87
2022-10-13T11:33:48.854Z,17.43
2022-10-13T11:36:39.045Z,14.80
2022-10-13T11:39:42.001Z,14.70
2022-10-13T11:42:29.536Z,14.67
2022-10-13T11:44:59.055Z,13.60
2022-10-13T11:47:55.965Z,13.57
2022-10-13T11:50:29.104Z,14.07
2022-10-13T11:53:11.206Z,13.40
2022-10-13T11:55:45.403Z,13.33
2022-10-13T11:58:16.509Z,14.37
2022-10-13T12:00:54.626Z,14.00
2022-10-13T12:03:23.586Z,12.77
2022-10-13T12:05:51.245Z,13.87
2022-10-13T12:08:19.518Z,12.37
2022-10-13T12:10:50.999Z,12.17
2022-10-13T12:13:23.914Z,12.10
2022-10-13T12:15:59.376Z,12.33
2022-10-13T12:18:29.294Z,12.07
2022-10-13T12:20:58.285Z,11.17
2022-10-13T12:23:26.147Z,11.00
2022-10-13T12:25:57.730Z,10.20
2022-10-13T12:28:27.582Z,9.07
2022-10-13T12:30:57.122Z,9.83
2022-10-13T12:33:28.160Z,9.63
2022-10-13T12:35:55.022Z,10.00
2022-10-13T12:38:22.688Z,9.00
2022-10-13T12:40:51.208Z,8.73
2022-10-13T12:43:21.720Z,10.50
2022-10-13T12:45:49.055Z,8.57
2022-10-13T12:48:34.970Z,8.57
2022-10-13T12:51:14.561Z,9.47
2022-10-13T12:53:41.606Z,9.03
2022-10-13T12:56:23.061Z,9.03
2022-10-13T12:58:49.766Z,9.30
2022-10-13T13:01:27.563Z,11.70
2022-10-13T13:03:57.389Z,9.60
2022-10-13T13:06:32.482Z,8.87
2022-10-13T13:09:24.013Z,9.17
2022-10-13T13:12:05.316Z,9.03
2022-10-13T13:14:37.334Z,9.17
2022-10-13T13:17:11.851Z,8.67
2022-10-13T13:19:40.167Z,8.90
2022-10-13T13:22:07.102Z,8.93
2022-10-13T13:24:41.382Z,9.60
2022-10-13T13:27:16.887Z,9.67
2022-10-13T13:29:53.962Z,9.30
2022-10-13T13:32:23.308Z,9.17
2022-10-13T13:34:50.394Z,9.40
2022-10-13T13:37:25.150Z,9.00
2022-10-13T13:39:52.409Z,10.30
2022-10-13T13:42:21.057Z,9.03
2022-10-13T13:44:47.965Z,9.30
2022-10-13T13:47:20.394Z,9.73
2022-10-13T13:49:49.722Z,9.77
2022-10-13T13:52:17.218Z,10.97
2022-10-13T13:54:48.525Z,10.27
2022-10-13T13:57:26.412Z,9.60
2022-10-13T13:59:55.799Z,10.13
2022-10-13T14:02:22.519Z,10.83
2022-10-13T14:04:50.185Z,10.57
2022-10-13T14:07:18.170Z,11.20
2022-10-13T14:09:45.383Z,11.07
2022-10-13T14:12:12.418Z,9.80
2022-10-13T14:14:39.702Z,10.00
2022-10-13T14:17:06.673Z,10.57
2022-10-13T14:19:33.872Z,10.40
2022-10-13T14:22:03.699Z,10.67
2022-10-13T14:24:34.403Z,11.57
2022-10-13T14:27:01.489Z,12.30
2022-10-13T14:29:28.573Z,12.30
2022-10-13T14:31:55.375Z,11.73
2022-10-13T14:34:22.477Z,10.97
2022-10-13T14:36:49.352Z,11.43
2022-10-13T14:39:17.539Z,10.83
2022-10-13T14:41:44.845Z,10.47
2022-10-13T14:44:13.069Z,12.70
2022-10-13T14:46:40.363Z,10.47
2022-10-13T14:49:07.104Z,11.27
2022-10-13T14:51:34.828Z,9.97
2022-10-13T14:54:03.379Z,11.93
2022-10-13T14:56:31.082Z,10.97
2022-10-13T14:58:59.847Z,10.37
2022-10-13T15:01:27.072Z,10.33
2022-10-13T15:03:54.076Z,10.20
2022-10-13T15:06:22.647Z,10.40
2022-10-13T15:08:50.254Z,9.73
2022-10-13T15:11:19.013Z,9.80
2022-10-13T15:13:46.836Z,11.27
2022-10-13T15:16:17.555Z,10.33
2022-10-13T15:18:44.491Z,10.70
2022-10-13T15:21:12.117Z,10.80
2022-10-13T15:23:39.266Z,9.73
2022-10-13T15:26:06.568Z,10.37
2022-10-13T15:28:36.345Z,11.00
2022-10-13T15:31:04.569Z,11.87
2022-10-13T15:33:31.633Z,11.60
2022-10-13T15:35:58.656Z,11.03
2022-10-13T15:38:25.535Z,13.23
2022-10-13T15:40:52.420Z,13.10
2022-10-13T15:43:19.193Z,11.60
2022-10-13T15:45:54.228Z,12.17
2022-10-13T15:48:21.505Z,11.70
2022-10-13T15:50:48.184Z,12.30
2022-10-13T15:53:15.139Z,11.33
2022-10-13T15:55:41.710Z,13.67
2022-10-13T15:58:13.560Z,12.43
2022-10-13T16:00:41.287Z,12.60
2022-10-13T16:03:11.946Z,13.00
2022-10-13T16:05:41.087Z,12.70
2022-10-13T16:08:08.407Z,14.10
2022-10-13T16:10:34.970Z,14.77
2022-10-13T16:13:01.565Z,15.63
2022-10-13T16:15:28.461Z,14.77
2022-10-13T16:17:55.034Z,15.83
2022-10-13T16:20:21.594Z,13.60
2022-10-13T16:22:49.011Z,15.90
2022-10-13T16:25:15.686Z,15.47
2022-10-13T16:27:44.525Z,15.37
2022-10-13T16:30:11.970Z,16.07
2022-10-13T16:32:39.301Z,16.37
2022-10-13T16:35:06.804Z,15.10
2022-10-13T16:37:33.768Z,15.40
2022-10-13T16:40:01.149Z,18.10
2022-10-13T16:42:27.728Z,18.73
2022-10-13T16:44:54.268Z,17.80
2022-10-13T16:47:21.897Z,17.33
2022-10-13T16:49:48.640Z,20.73
2022-10-13T16:52:15.252Z,21.03
2022-10-13T16:54:41.820Z,25.83
2022-10-13T16:57:09.337Z,23.33
2022-10-13T16:59:35.903Z,25.67
2022-10-13T17:02:02.458Z,24.00
2022-10-13T17:04:30.500Z,26.67
2022-10-13T17:06:57.245Z,25.10
2022-10-13T17:09:23.865Z,23.20
2022-10-13T17:11:50.457Z,21.67
2022-10-13T17:14:17.740Z,22.17
2022-10-13T17:16:44.484Z,23.27
2022-10-13T17:19:11.042Z,21.30
2022-10-13T17:21:37.655Z,21.40
2022-10-13T17:24:04.500Z,18.97
2022-10-13T17:26:31.177Z,17.83
2022-10-13T17:28:57.836Z,18.60
2022-10-13T17:31:25.329Z,18.97
2022-10-13T17:33:52.549Z,59.43
2022-10-13T17:36:21.513Z,87.83
2022-10-13T17:38:48.919Z,125.27
2022-10-13T17:41:15.750Z,73.37
2022-10-13T17:43:43.559Z,53.60
2022-10-13T17:46:35.186Z,30.47
2022-10-13T17:49:00.174Z,25.70
2022-10-13T17:51:27.104Z,23.53
2022-10-13T17:53:54.597Z,23.30
2022-10-13T17:56:23.138Z,24.07
2022-10-13T17:58:50.901Z,24.00
2022-10-13T18:01:23.318Z,26.13
2022-10-13T18:03:52.175Z,26.27
2022-10-13T18:06:21.444Z,26.30
2022-10-13T18:08:48.191Z,24.03
2022-10-13T18:11:17.179Z,26.13
2022-10-13T18:13:45.110Z,24.57
2022-10-13T18:16:14.267Z,24.33
2022-10-13T18:18:41.088Z,23.10
2022-10-13T18:21:08.054Z,23.93
2022-10-13T18:23:36.453Z,22.73
2022-10-13T18:26:05.078Z,23.23
2022-10-13T18:28:32.744Z,22.90
2022-10-13T18:31:04.133Z,22.53
2022-10-13T18:33:30.848Z,22.30
2022-10-13T18:35:57.760Z,24.03
2022-10-13T18:38:24.839Z,23.83
2022-10-13T18:40:52.169Z,23.10
2022-10-13T18:43:19.067Z,22.77
2022-10-13T18:45:45.835Z,24.37
2022-10-13T18:48:12.734Z,23.37
2022-10-13T18:50:42.184Z,23.00
2022-10-13T18:53:08.811Z,24.73
2022-10-13T18:55:35.791Z,25.33
2022-10-13T18:58:03.637Z,23.67
2022-10-13T19:00:30.286Z,23.00
2022-10-13T19:02:56.989Z,23.50
2022-10-13T19:05:23.614Z,24.67
2022-10-13T19:07:50.404Z,23.97
2022-10-13T19:10:19.667Z,24.10
2022-10-13T19:13:02.843Z,23.43
2022-10-13T19:15:30.775Z,28.00
2022-10-13T19:17:57.376Z,27.03
2022-10-13T19:20:24.483Z,26.83
2022-10-13T19:22:51.308Z,27.17
2022-10-13T19:25:20.365Z,26.83
2022-10-13T19:27:47.260Z,24.67
2022-10-13T19:30:15.556Z,25.97
2022-10-13T19:32:42.904Z,25.00
2022-10-13T19:35:09.670Z,24.60
2022-10-13T19:37:36.658Z,26.00
2022-10-13T19:40:04.870Z,24.73
2022-10-13T19:42:31.895Z,26.23
2022-10-13T19:45:00.346Z,24.73
2022-10-13T19:47:27.471Z,24.43
2022-10-13T19:49:54.707Z,25.97
2022-10-13T19:52:23.210Z,25.27
2022-10-13T19:54:50.988Z,26.40
2022-10-13T19:57:17.734Z,25.97
2022-10-13T19:59:47.710Z,25.33
2022-10-13T20:02:14.801Z,25.07
2022-10-13T20:04:41.399Z,25.87
2022-10-13T20:07:08.673Z,24.47
2022-10-13T20:09:35.233Z,26.53
2022-10-13T20:12:01.835Z,26.03
2022-10-13T20:14:28.421Z,28.40
2022-10-13T20:16:57.748Z,26.67
2022-10-13T20:19:24.367Z,31.63
2022-10-13T20:21:52.111Z,30.10
2022-10-13T20:24:20.803Z,30.30
2022-10-13T20:26:47.462Z,28.77
2022-10-13T20:29:14.456Z,30.23
2022-10-13T20:31:41.499Z,29.70
2022-10-13T20:34:10.567Z,29.23
2022-10-13T20:36:39.121Z,30.07
2022-10-13T20:39:06.358Z,35.20
2022-10-13T20:41:33.571Z,31.07
2022-10-13T20:44:01.019Z,32.23
2022-10-13T20:46:27.956Z,31.50
2022-10-13T20:49:10.370Z,30.53
2022-10-13T20:51:38.329Z,32.30
2022-10-13T20:54:05.388Z,32.93
2022-10-13T20:56:31.929Z,32.23
2022-10-13T20:59:02.688Z,34.00
2022-10-13T21:01:29.422Z,32.87
2022-10-13T21:03:56.050Z,33.43
2022-10-13T21:06:23.868Z,32.43
2022-10-13T21:08:50.835Z,32.67
2022-10-13T21:11:19.733Z,32.67
2022-10-13T21:13:47.285Z,31.90
2022-10-13T21:16:16.009Z,31.90
2022-10-13T21:18:44.483Z,32.27
2022-10-13T21:21:11.734Z,34.70
2022-10-13T21:23:38.341Z,32.57
2022-10-13T21:26:07.007Z,31.90
2022-10-13T21:28:35.340Z,31.87
2022-10-13T21:31:03.402Z,34.53
2022-10-13T21:33:31.960Z,31.60
2022-10-13T21:36:01.567Z,35.47
2022-10-13T21:38:31.201Z,34.20
2022-10-13T21:40:57.780Z,32.20
2022-10-13T21:43:24.346Z,32.67
2022-10-13T21:45:50.929Z,33.27
2022-10-13T21:48:17.508Z,34.07
2022-10-13T21:50:45.120Z,33.90
2022-10-13T21:53:11.732Z,33.00
2022-10-13T21:55:38.290Z,33.10
2022-10-13T21:58:05.459Z,33.07
2022-10-13T22:00:32.722Z,32.03
2022-10-13T22:02:59.391Z,33.70
2022-10-13T22:05:26.038Z,33.70
2022-10-13T22:07:53.652Z,34.10
2022-10-13T22:10:20.190Z,35.03
2022-10-13T22:12:46.806Z,32.50
2022-10-13T22:15:13.352Z,34.10
2022-10-13T22:17:39.982Z,33.67
2022-10-13T22:20:07.156Z,31.83
2022-10-13T22:22:33.734Z,32.30
2022-10-13T22:25:01.339Z,32.13
2022-10-13T22:27:27.889Z,32.73
2022-10-13T22:29:54.461Z,33.03
2022-10-13T22:32:21.022Z,32.87
2022-10-13T22:34:47.558Z,32.90
2022-10-13T22:37:14.171Z,33.70
2022-10-13T22:39:40.838Z,33.77
2022-10-13T22:42:08.074Z,29.60
2022-10-13T22:44:34.662Z,31.67
2022-10-13T22:47:01.230Z,32.00
2022-10-13T22:49:27.983Z,33.33
2022-10-13T22:51:54.579Z,31.97
2022-10-13T22:54:21.146Z,32.23
2022-10-13T22:56:47.826Z,30.13
2022-10-13T22:59:15.405Z,30.93
2022-10-13T23:01:41.960Z,32.17
2022-10-13T23:04:08.562Z,31.30
2022-10-13T23:06:35.654Z,30.80
2022-10-13T23:09:03.640Z,31.80
2022-10-13T23:11:30.260Z,30.17
2022-10-13T23:13:56.799Z,31.27
2022-10-13T23:16:25.278Z,31.37
2022-10-13T23:18:52.619Z,31.77
2022-10-13T23:21:21.266Z,31.87
2022-10-13T23:23:47.904Z,33.30
2022-10-13T23:26:16.296Z,32.27
2022-10-13T23:28:43.461Z,34.03
2022-10-13T23:31:12.789Z,32.97
2022-10-13T23:33:40.717Z,34.07
2022-10-13T23:36:08.487Z,35.50
2022-10-13T23:38:35.218Z,33.83
2022-10-13T23:41:03.342Z,32.93
2022-10-13T23:43:29.981Z,31.80
2022-10-13T23:45:56.633Z,32.63
2022-10-13T23:48:23.275Z,33.90
2022-10-13T23:50:50.553Z,33.93
2022-10-13T23:53:17.112Z,35.43
2022-10-13T23:55:43.782Z,35.63
2022-10-13T23:58:10.770Z,32.53
